createdAt,value
2018-04-27T00:00:39.511Z,4.00
2018-04-27T00:01:39.359Z,0.00
2018-04-27T00:02:39.322Z,0.00
2018-04-27T00:03:39.289Z,0.00
2018-04-27T00:04:39.246Z,0.00
2018-04-27T00:05:39.238Z,0.00
2018-04-27T00:06:39.309Z,0.00
2018-04-27T00:07:39.182Z,0.00
2018-04-27T00:08:39.166Z,0.00
2018-04-27T00:09:39.136Z,0.00
2018-04-27T00:10:39.144Z,0.00
2018-04-27T00:11:39.192Z,0.00
2018-04-27T00:12:39.071Z,0.00
2018-04-27T00:13:39.025Z,0.00
2018-04-27T00:14:39.006Z,0.00
2018-04-27T00:15:38.993Z,0.00
2018-04-27T00:16:39.129Z,0.00
2018-04-27T00:17:38.939Z,0.00
2018-04-27T00:18:38.915Z,0.00
2018-04-27T00:19:38.919Z,0.00
2018-04-27T00:20:39.453Z,0.00
2018-04-27T00:21:38.932Z,0.00
2018-04-27T00:22:38.814Z,0.00
2018-04-27T00:23:38.787Z,0.00
2018-04-27T00:24:38.768Z,0.00
2018-04-27T00:25:38.724Z,0.00
2018-04-27T00:26:38.798Z,0.00
2018-04-27T00:27:38.724Z,0.00
2018-04-27T00:28:38.657Z,0.00
2018-04-27T00:29:38.633Z,0.00
2018-04-27T00:30:38.595Z,0.00
2018-04-27T00:31:38.691Z,0.00
2018-04-27T00:32:38.546Z,0.00
2018-04-27T00:33:38.597Z,0.00
2018-04-27T00:34:38.518Z,0.00
2018-04-27T00:35:38.470Z,0.00
2018-04-27T00:36:38.522Z,0.00
2018-04-27T00:37:38.467Z,0.00
2018-04-27T00:38:38.421Z,0.00
2018-04-27T00:39:38.382Z,0.00
2018-04-27T00:40:38.365Z,0.00
2018-04-27T00:41:38.338Z,0.00
2018-04-27T00:42:38.305Z,0.00
2018-04-27T00:43:38.382Z,0.00
2018-04-27T00:44:38.795Z,0.00
2018-04-27T00:45:38.216Z,0.00
2018-04-27T00:46:38.195Z,0.00
2018-04-27T00:47:38.185Z,0.00
2018-04-27T00:48:38.256Z,0.00
2018-04-27T00:49:38.131Z,0.00
2018-04-27T00:50:38.100Z,0.00
2018-04-27T00:51:38.105Z,0.00
2018-04-27T00:52:38.099Z,0.00
2018-04-27T00:53:38.120Z,0.00
2018-04-27T00:54:38.007Z,0.00
2018-04-27T00:55:37.972Z,0.00
2018-04-27T00:56:38.472Z,0.00
2018-04-27T00:57:37.923Z,0.00
2018-04-27T00:58:38.074Z,0.00
2018-04-27T00:59:37.872Z,0.00
2018-04-27T01:00:37.825Z,0.00
2018-04-27T01:01:38.361Z,0.00
2018-04-27T01:02:37.872Z,0.00
2018-04-27T01:03:37.849Z,0.00
2018-04-27T01:04:37.809Z,0.00
2018-04-27T01:05:37.759Z,0.00
2018-04-27T01:06:37.686Z,0.00
2018-04-27T01:07:37.693Z,0.00
2018-04-27T01:08:38.224Z,0.00
2018-04-27T01:09:37.645Z,0.00
2018-04-27T01:10:38.115Z,0.00
2018-04-27T01:11:37.595Z,0.00
2018-04-27T01:12:37.539Z,0.00
2018-04-27T01:13:38.079Z,0.00
2018-04-27T01:14:37.523Z,0.00
2018-04-27T01:15:38.064Z,0.00
2018-04-27T01:16:37.455Z,0.00
2018-04-27T01:17:37.965Z,0.00
2018-04-27T01:18:37.394Z,0.00
2018-04-27T01:19:37.354Z,0.00
2018-04-27T01:20:37.468Z,0.00
2018-04-27T01:21:37.294Z,0.00
2018-04-27T01:22:37.260Z,0.00
2018-04-27T01:23:37.252Z,0.00
2018-04-27T01:24:37.221Z,0.00
2018-04-27T01:25:37.355Z,0.00
2018-04-27T01:26:37.182Z,0.00
2018-04-27T01:27:37.161Z,0.00
2018-04-27T01:28:37.151Z,0.00
2018-04-27T01:29:37.072Z,0.00
2018-04-27T01:30:37.195Z,0.00
2018-04-27T01:31:37.040Z,0.00
2018-04-27T01:32:37.013Z,0.00
2018-04-27T01:33:36.993Z,0.00
2018-04-27T01:34:37.501Z,0.00
2018-04-27T01:35:37.482Z,0.00
2018-04-27T01:36:36.911Z,0.00
2018-04-27T01:37:36.941Z,0.00
2018-04-27T01:38:37.379Z,0.00
2018-04-27T01:39:36.899Z,0.00
2018-04-27T01:40:36.944Z,0.00
2018-04-27T01:41:36.890Z,0.00
2018-04-27T01:42:36.756Z,0.00
2018-04-27T01:43:36.752Z,0.00
2018-04-27T01:44:36.757Z,0.00
2018-04-27T01:45:37.515Z,0.00
2018-04-27T01:46:36.639Z,0.00
2018-04-27T01:47:37.156Z,0.00
2018-04-27T01:48:36.668Z,0.00
2018-04-27T01:49:36.568Z,0.00
2018-04-27T01:50:36.604Z,0.00
2018-04-27T01:51:37.244Z,0.00
2018-04-27T01:52:36.523Z,0.00
2018-04-27T01:53:36.477Z,0.00
2018-04-27T01:54:36.989Z,0.00
2018-04-27T01:55:36.485Z,0.00
2018-04-27T01:56:36.943Z,0.00
2018-04-27T01:57:36.482Z,0.00
2018-04-27T01:58:36.361Z,0.00
2018-04-27T01:59:36.312Z,0.00
2018-04-27T02:00:36.285Z,0.00
2018-04-27T02:01:36.324Z,0.00
2018-04-27T02:02:36.464Z,0.00
2018-04-27T02:03:36.213Z,0.00
2018-04-27T02:04:36.243Z,0.00
2018-04-27T02:05:36.168Z,0.00
2018-04-27T02:06:36.207Z,0.00
2018-04-27T02:07:36.789Z,0.00
2018-04-27T02:08:36.087Z,0.00
2018-04-27T02:09:36.119Z,0.00
2018-04-27T02:10:36.115Z,0.00
2018-04-27T02:11:36.032Z,0.00
2018-04-27T02:12:36.098Z,0.00
2018-04-27T02:13:36.370Z,0.00
2018-04-27T02:14:35.996Z,0.00
2018-04-27T02:15:35.875Z,0.00
2018-04-27T02:16:35.857Z,0.00
2018-04-27T02:17:35.962Z,0.00
2018-04-27T02:18:35.849Z,0.00
2018-04-27T02:19:35.805Z,0.00
2018-04-27T02:20:36.468Z,0.00
2018-04-27T02:21:35.767Z,0.00
2018-04-27T02:22:35.789Z,0.00
2018-04-27T02:23:35.788Z,0.00
2018-04-27T02:24:35.662Z,0.00
2018-04-27T02:25:35.642Z,0.00
2018-04-27T02:26:35.618Z,0.00
2018-04-27T02:27:36.181Z,0.00
2018-04-27T02:28:35.664Z,0.00
2018-04-27T02:29:35.620Z,0.00
2018-04-27T02:30:35.516Z,0.00
2018-04-27T02:31:35.466Z,0.00
2018-04-27T02:32:35.482Z,0.00
2018-04-27T02:33:35.535Z,0.00
2018-04-27T02:34:35.968Z,0.00
2018-04-27T02:35:36.006Z,0.00
2018-04-27T02:36:35.328Z,0.00
2018-04-27T02:37:35.866Z,0.00
2018-04-27T02:38:35.286Z,0.00
2018-04-27T02:39:35.276Z,0.00
2018-04-27T02:40:35.908Z,0.00
2018-04-27T02:41:35.816Z,0.00
2018-04-27T02:42:35.732Z,0.00
2018-04-27T02:43:36.143Z,0.00
2018-04-27T02:44:35.650Z,0.00
2018-04-27T02:45:35.647Z,0.00
2018-04-27T02:46:35.606Z,0.00
2018-04-27T02:47:35.600Z,0.00
2018-04-27T02:48:35.063Z,0.00
2018-04-27T02:49:35.017Z,0.00
2018-04-27T02:50:35.600Z,0.00
2018-04-27T02:51:34.946Z,0.00
2018-04-27T02:52:34.904Z,0.00
2018-04-27T02:53:35.063Z,0.00
2018-04-27T02:54:35.417Z,0.00
2018-04-27T02:55:34.935Z,0.00
2018-04-27T02:56:34.815Z,0.00
2018-04-27T02:57:34.815Z,0.00
2018-04-27T02:58:34.816Z,0.00
2018-04-27T02:59:34.755Z,0.00
2018-04-27T03:00:34.730Z,0.00
2018-04-27T03:01:35.346Z,0.00
2018-04-27T03:02:34.788Z,0.00
2018-04-27T03:03:34.648Z,0.00
2018-04-27T03:04:34.597Z,0.00
2018-04-27T03:05:34.626Z,0.00
2018-04-27T03:06:34.655Z,0.00
2018-04-27T03:07:34.574Z,0.00
2018-04-27T03:08:35.050Z,0.00
2018-04-27T03:09:34.497Z,0.00
2018-04-27T03:10:34.509Z,0.00
2018-04-27T03:11:34.498Z,0.00
2018-04-27T03:12:34.380Z,0.00
2018-04-27T03:13:34.379Z,0.00
2018-04-27T03:14:34.326Z,0.00
2018-04-27T03:15:34.375Z,0.00
2018-04-27T03:16:34.284Z,0.00
2018-04-27T03:17:34.307Z,0.00
2018-04-27T03:18:34.644Z,0.00
2018-04-27T03:19:34.223Z,0.00
2018-04-27T03:20:34.162Z,0.00
2018-04-27T03:21:34.179Z,0.00
2018-04-27T03:22:34.259Z,0.00
2018-04-27T03:23:34.101Z,0.00
2018-04-27T03:24:34.051Z,0.00
2018-04-27T03:25:34.017Z,0.00
2018-04-27T03:26:34.057Z,0.00
2018-04-27T03:27:34.074Z,0.00
2018-04-27T03:28:34.011Z,0.00
2018-04-27T03:29:33.918Z,0.00
2018-04-27T03:30:33.902Z,0.00
2018-04-27T03:31:33.943Z,0.00
2018-04-27T03:32:33.969Z,0.00
2018-04-27T03:33:33.928Z,0.00
2018-04-27T03:34:33.794Z,0.00
2018-04-27T03:35:33.785Z,0.00
2018-04-27T03:36:33.770Z,0.00
2018-04-27T03:37:34.498Z,0.00
2018-04-27T03:38:33.816Z,0.00
2018-04-27T03:39:33.660Z,0.00
2018-04-27T03:40:33.649Z,0.00
2018-04-27T03:41:34.150Z,0.00
2018-04-27T03:42:33.606Z,0.00
2018-04-27T03:43:33.650Z,0.00
2018-04-27T03:44:33.599Z,0.00
2018-04-27T03:45:33.535Z,0.00
2018-04-27T03:46:33.509Z,0.00
2018-04-27T03:47:34.030Z,0.00
2018-04-27T03:48:33.460Z,0.00
2018-04-27T03:49:33.908Z,0.00
2018-04-27T03:50:33.517Z,0.00
2018-04-27T03:51:33.533Z,0.00
2018-04-27T03:52:33.504Z,0.00
2018-04-27T03:53:33.407Z,0.00
2018-04-27T03:54:33.473Z,0.00
2018-04-27T03:55:33.499Z,0.00
2018-04-27T03:56:33.459Z,0.00
2018-04-27T03:57:33.221Z,0.00
2018-04-27T03:58:33.284Z,0.00
2018-04-27T03:59:33.268Z,0.00
2018-04-27T04:00:33.316Z,0.00
2018-04-27T04:01:33.093Z,0.00
2018-04-27T04:02:33.260Z,0.00
2018-04-27T04:03:33.035Z,0.00
2018-04-27T04:04:33.056Z,0.00
2018-04-27T04:05:32.960Z,0.00
2018-04-27T04:06:32.997Z,0.00
2018-04-27T04:07:32.913Z,0.00
2018-04-27T04:08:32.890Z,0.00
2018-04-27T04:09:32.890Z,0.00
2018-04-27T04:10:32.997Z,0.00
2018-04-27T04:11:33.341Z,0.00
2018-04-27T04:12:32.899Z,0.00
2018-04-27T04:13:32.757Z,0.00
2018-04-27T04:14:32.733Z,0.00
2018-04-27T04:15:32.718Z,0.00
2018-04-27T04:16:32.794Z,0.00
2018-04-27T04:17:32.788Z,0.00
2018-04-27T04:18:32.609Z,0.00
2018-04-27T04:19:32.585Z,0.00
2018-04-27T04:20:32.644Z,0.00
2018-04-27T04:21:32.640Z,0.00
2018-04-27T04:22:32.505Z,0.00
2018-04-27T04:23:32.521Z,0.00
2018-04-27T04:24:32.468Z,0.00
2018-04-27T04:25:32.490Z,0.00
2018-04-27T04:26:32.506Z,0.00
2018-04-27T04:27:32.364Z,0.00
2018-04-27T04:28:32.453Z,0.00
2018-04-27T04:29:32.373Z,0.00
2018-04-27T04:30:32.304Z,0.00
2018-04-27T04:31:32.570Z,0.00
2018-04-27T04:32:32.390Z,0.00
2018-04-27T04:33:32.214Z,0.00
2018-04-27T04:34:32.196Z,0.00
2018-04-27T04:35:32.155Z,0.00
2018-04-27T04:36:32.132Z,0.00
2018-04-27T04:37:32.196Z,0.00
2018-04-27T04:38:32.077Z,0.00
2018-04-27T04:39:32.049Z,0.00
2018-04-27T04:40:32.113Z,0.00
2018-04-27T04:41:32.040Z,0.00
2018-04-27T04:42:31.969Z,0.00
2018-04-27T04:43:32.191Z,0.00
2018-04-27T04:44:31.948Z,0.00
2018-04-27T04:45:31.901Z,0.00
2018-04-27T04:46:31.859Z,0.00
2018-04-27T04:47:31.847Z,0.00
2018-04-27T04:48:31.929Z,0.00
2018-04-27T04:49:31.786Z,0.00
2018-04-27T04:50:31.765Z,0.00
2018-04-27T04:51:31.749Z,0.00
2018-04-27T04:52:31.906Z,0.00
2018-04-27T04:53:31.816Z,0.00
2018-04-27T04:54:31.662Z,0.00
2018-04-27T04:55:31.635Z,0.00
2018-04-27T04:56:31.597Z,0.00
2018-04-27T04:57:31.563Z,0.00
2018-04-27T04:58:31.647Z,0.00
2018-04-27T04:59:31.513Z,0.00
2018-04-27T05:00:31.499Z,0.00
2018-04-27T05:01:31.496Z,0.00
2018-04-27T05:02:31.445Z,0.00
2018-04-27T05:03:31.453Z,0.00
2018-04-27T05:04:31.478Z,0.00
2018-04-27T05:05:31.351Z,0.00
2018-04-27T05:06:31.324Z,0.00
2018-04-27T05:07:31.311Z,0.00
2018-04-27T05:08:31.266Z,0.00
2018-04-27T05:09:31.352Z,0.00
2018-04-27T05:10:31.310Z,0.00
2018-04-27T05:11:31.195Z,0.00
2018-04-27T05:12:31.234Z,0.00
2018-04-27T05:13:31.141Z,0.00
2018-04-27T05:14:31.171Z,0.00
2018-04-27T05:15:31.161Z,0.00
2018-04-27T05:16:31.064Z,0.00
2018-04-27T05:17:31.034Z,0.00
2018-04-27T05:18:31.014Z,0.00
2018-04-27T05:19:30.966Z,0.00
2018-04-27T05:20:31.157Z,0.00
2018-04-27T05:21:30.940Z,0.00
2018-04-27T05:22:30.887Z,0.00
2018-04-27T05:23:30.868Z,0.00
2018-04-27T05:24:30.844Z,0.00
2018-04-27T05:25:30.930Z,0.00
2018-04-27T05:26:30.778Z,0.00
2018-04-27T05:27:30.801Z,0.00
2018-04-27T05:28:30.744Z,0.00
2018-04-27T05:29:30.705Z,0.00
2018-04-27T05:30:30.736Z,0.00
2018-04-27T05:31:30.703Z,0.00
2018-04-27T05:32:30.625Z,0.00
2018-04-27T05:33:30.622Z,0.00
2018-04-27T05:34:30.572Z,0.00
2018-04-27T05:35:30.662Z,0.00
2018-04-27T05:36:30.590Z,0.00
2018-04-27T05:37:30.491Z,0.00
2018-04-27T05:38:30.459Z,0.00
2018-04-27T05:39:30.435Z,0.00
2018-04-27T05:40:30.486Z,0.00
2018-04-27T05:41:30.557Z,0.00
2018-04-27T05:42:30.377Z,0.00
2018-04-27T05:43:30.347Z,0.00
2018-04-27T05:44:30.315Z,0.00
2018-04-27T05:45:30.289Z,0.00
2018-04-27T05:46:30.275Z,0.00
2018-04-27T05:47:30.320Z,0.00
2018-04-27T05:48:30.218Z,0.00
2018-04-27T05:49:30.218Z,0.00
2018-04-27T05:50:30.169Z,0.00
2018-04-27T05:51:30.112Z,0.00
2018-04-27T05:52:30.098Z,0.00
2018-04-27T05:53:30.117Z,0.00
2018-04-27T05:54:30.109Z,0.00
2018-04-27T05:55:30.044Z,0.00
2018-04-27T05:56:30.020Z,0.00
2018-04-27T05:57:29.949Z,0.00
2018-04-27T05:58:30.040Z,0.00
2018-04-27T05:59:29.894Z,0.00
2018-04-27T06:00:29.944Z,0.00
2018-04-27T06:01:29.889Z,0.00
2018-04-27T06:02:29.903Z,0.00
2018-04-27T06:03:29.905Z,0.00
2018-04-27T06:04:29.757Z,0.00
2018-04-27T06:05:29.743Z,0.00
2018-04-27T06:06:29.707Z,0.00
2018-04-27T06:07:29.704Z,0.00
2018-04-27T06:08:29.750Z,0.00
2018-04-27T06:09:29.617Z,0.00
2018-04-27T06:10:29.597Z,0.00
2018-04-27T06:11:29.586Z,0.00
2018-04-27T06:12:29.563Z,0.00
2018-04-27T06:13:29.624Z,0.00
2018-04-27T06:14:29.513Z,0.00
2018-04-27T06:15:29.467Z,0.00
2018-04-27T06:16:29.450Z,0.00
2018-04-27T06:17:29.410Z,0.00
2018-04-27T06:18:29.380Z,0.00
2018-04-27T06:19:29.466Z,0.00
2018-04-27T06:20:29.330Z,0.00
2018-04-27T06:21:29.318Z,0.00
2018-04-27T06:22:29.292Z,0.00
2018-04-27T06:23:29.250Z,0.00
2018-04-27T06:24:29.298Z,0.00
2018-04-27T06:25:29.307Z,0.00
2018-04-27T06:26:29.197Z,0.00
2018-04-27T06:27:29.164Z,0.00
2018-04-27T06:28:29.111Z,0.00
2018-04-27T06:29:29.099Z,0.00
2018-04-27T06:30:29.124Z,0.00
2018-04-27T06:31:29.039Z,0.00
2018-04-27T06:32:29.008Z,0.00
2018-04-27T06:33:29.001Z,0.00
2018-04-27T06:34:28.966Z,0.00
2018-04-27T06:35:29.048Z,0.00
2018-04-27T06:36:28.913Z,0.00
2018-04-27T06:37:28.861Z,0.00
2018-04-27T06:38:28.852Z,0.00
2018-04-27T06:39:28.848Z,0.00
2018-04-27T06:40:28.908Z,0.00
2018-04-27T06:41:28.769Z,0.00
2018-04-27T06:42:28.734Z,0.00
2018-04-27T06:43:28.739Z,0.00
2018-04-27T06:44:28.676Z,0.00
2018-04-27T06:45:28.742Z,0.00
2018-04-27T06:46:28.650Z,0.00
2018-04-27T06:47:28.618Z,0.00
2018-04-27T06:48:28.582Z,0.00
2018-04-27T06:49:28.541Z,0.00
2018-04-27T06:50:28.633Z,0.00
2018-04-27T06:51:28.570Z,0.00
2018-04-27T06:52:28.497Z,0.00
2018-04-27T06:53:28.455Z,0.00
2018-04-27T06:54:28.432Z,0.00
2018-04-27T06:55:28.438Z,0.00
2018-04-27T06:56:28.409Z,0.00
2018-04-27T06:57:28.326Z,0.00
2018-04-27T06:58:28.323Z,0.00
2018-04-27T06:59:28.331Z,0.00
2018-04-27T07:00:28.281Z,0.00
2018-04-27T07:01:28.224Z,0.00
2018-04-27T07:02:28.290Z,0.00
2018-04-27T07:03:28.184Z,0.00
2018-04-27T07:04:28.137Z,0.00
2018-04-27T07:05:28.117Z,0.00
2018-04-27T07:06:28.120Z,0.00
2018-04-27T07:07:28.121Z,0.00
2018-04-27T07:08:28.056Z,0.00
2018-04-27T07:09:28.035Z,0.00
2018-04-27T07:10:27.990Z,0.00
2018-04-27T07:11:27.960Z,0.00
2018-04-27T07:12:28.021Z,0.00
2018-04-27T07:13:27.899Z,0.00
2018-04-27T07:14:27.958Z,0.00
2018-04-27T07:15:27.849Z,0.00
2018-04-27T07:16:27.881Z,0.00
2018-04-27T07:17:27.905Z,0.00
2018-04-27T07:18:27.777Z,0.00
2018-04-27T07:19:27.735Z,0.00
2018-04-27T07:20:27.708Z,0.00
2018-04-27T07:21:27.724Z,0.00
2018-04-27T07:22:27.753Z,0.00
2018-04-27T07:23:27.639Z,0.00
2018-04-27T07:24:27.614Z,0.00
2018-04-27T07:25:27.591Z,0.00
2018-04-27T07:26:27.553Z,0.00
2018-04-27T07:27:27.643Z,0.00
2018-04-27T07:28:27.494Z,0.00
2018-04-27T07:29:27.464Z,0.00
2018-04-27T07:30:27.452Z,0.00
2018-04-27T07:31:27.410Z,0.00
2018-04-27T07:32:27.400Z,0.00
2018-04-27T07:33:27.447Z,0.00
2018-04-27T07:34:27.397Z,0.00
2018-04-27T07:35:27.303Z,0.00
2018-04-27T07:36:27.266Z,0.00
2018-04-27T07:37:27.246Z,0.00
2018-04-27T07:38:27.223Z,0.00
2018-04-27T07:39:27.314Z,0.00
2018-04-27T07:40:27.177Z,0.00
2018-04-27T07:41:27.145Z,0.00
2018-04-27T07:42:27.125Z,0.00
2018-04-27T07:43:27.101Z,0.00
2018-04-27T07:44:27.149Z,0.00
2018-04-27T07:45:27.054Z,0.00
2018-04-27T07:46:27.052Z,0.00
2018-04-27T07:47:27.012Z,0.00
2018-04-27T07:48:26.975Z,0.00
2018-04-27T07:49:26.976Z,0.00
2018-04-27T07:50:26.891Z,0.00
2018-04-27T07:51:26.895Z,0.00
2018-04-27T07:52:26.854Z,0.00
2018-04-27T07:53:26.833Z,0.00
2018-04-27T07:54:26.856Z,0.00
2018-04-27T07:55:26.858Z,0.00
2018-04-27T07:56:26.754Z,0.00
2018-04-27T07:57:26.708Z,0.00
2018-04-27T07:58:26.722Z,0.00
2018-04-27T07:59:26.742Z,0.00
2018-04-27T08:00:26.621Z,0.00
2018-04-27T08:01:26.598Z,0.00
2018-04-27T08:02:26.600Z,0.00
2018-04-27T08:03:26.543Z,0.00
2018-04-27T08:04:26.528Z,0.00
2018-04-27T08:05:26.617Z,0.00
2018-04-27T08:06:26.463Z,0.00
2018-04-27T08:07:26.447Z,0.00
2018-04-27T08:08:26.433Z,0.00
2018-04-27T08:09:26.402Z,0.00
2018-04-27T08:10:26.344Z,0.00
2018-04-27T08:11:26.463Z,0.00
2018-04-27T08:12:26.326Z,0.00
2018-04-27T08:13:26.273Z,0.00
2018-04-27T08:14:26.251Z,0.00
2018-04-27T08:15:26.238Z,0.00
2018-04-27T08:16:26.302Z,0.00
2018-04-27T08:17:26.234Z,0.00
2018-04-27T08:18:26.133Z,0.00
2018-04-27T08:19:26.131Z,0.00
2018-04-27T08:20:26.101Z,0.00
2018-04-27T08:21:26.154Z,0.00
2018-04-27T08:22:26.028Z,0.00
2018-04-27T08:23:26.004Z,0.00
2018-04-27T08:24:25.972Z,0.00
2018-04-27T08:25:25.946Z,0.00
2018-04-27T08:26:26.024Z,0.00
2018-04-27T08:27:25.944Z,0.00
2018-04-27T08:28:25.877Z,0.00
2018-04-27T08:29:25.855Z,0.00
2018-04-27T08:30:25.824Z,0.00
2018-04-27T08:31:25.885Z,0.00
2018-04-27T08:32:25.765Z,0.00
2018-04-27T08:33:25.737Z,0.00
2018-04-27T08:34:25.724Z,0.00
2018-04-27T08:35:25.689Z,0.00
2018-04-27T08:36:25.833Z,0.00
2018-04-27T08:37:25.646Z,0.00
2018-04-27T08:38:25.611Z,0.00
2018-04-27T08:39:25.580Z,0.00
2018-04-27T08:40:25.583Z,0.00
2018-04-27T08:41:25.510Z,0.00
2018-04-27T08:42:25.532Z,0.00
2018-04-27T08:43:25.458Z,0.00
2018-04-27T08:44:25.439Z,0.00
2018-04-27T08:45:25.402Z,0.00
2018-04-27T08:46:25.373Z,0.00
2018-04-27T08:47:25.356Z,0.00
2018-04-27T08:48:25.470Z,0.00
2018-04-27T08:49:25.301Z,0.00
2018-04-27T08:50:25.334Z,0.00
2018-04-27T08:51:25.251Z,0.00
2018-04-27T08:52:25.231Z,0.00
2018-04-27T08:53:25.208Z,0.00
2018-04-27T08:54:25.300Z,0.00
2018-04-27T08:55:25.161Z,0.00
2018-04-27T08:56:25.110Z,0.00
2018-04-27T08:57:25.077Z,0.00
2018-04-27T08:58:25.047Z,0.00
2018-04-27T08:59:25.136Z,0.00
2018-04-27T09:00:25.038Z,0.00
2018-04-27T09:01:24.973Z,0.00
2018-04-27T09:02:24.955Z,0.00
2018-04-27T09:03:24.933Z,0.00
2018-04-27T09:04:25.038Z,0.00
2018-04-27T09:05:24.905Z,0.00
2018-04-27T09:06:24.855Z,0.00
2018-04-27T09:07:24.849Z,0.00
2018-04-27T09:08:24.784Z,0.00
2018-04-27T09:09:24.867Z,0.00
2018-04-27T09:10:24.746Z,0.00
2018-04-27T09:11:24.716Z,0.00
2018-04-27T09:12:24.693Z,0.00
2018-04-27T09:13:24.641Z,0.00
2018-04-27T09:14:24.613Z,0.00
2018-04-27T09:15:24.709Z,0.00
2018-04-27T09:16:24.701Z,0.00
2018-04-27T09:17:24.532Z,0.00
2018-04-27T09:18:24.512Z,0.00
2018-04-27T09:19:24.489Z,0.00
2018-04-27T09:20:24.452Z,0.00
2018-04-27T09:21:24.480Z,0.00
2018-04-27T09:22:24.410Z,0.00
2018-04-27T09:23:24.385Z,0.00
2018-04-27T09:24:24.367Z,0.00
2018-04-27T09:25:24.358Z,0.00
2018-04-27T09:26:24.288Z,0.00
2018-04-27T09:27:24.371Z,0.00
2018-04-27T09:28:24.251Z,0.00
2018-04-27T09:29:24.241Z,0.00
2018-04-27T09:30:24.176Z,0.00
2018-04-27T09:31:24.151Z,0.00
2018-04-27T09:32:24.302Z,0.00
2018-04-27T09:33:24.134Z,0.00
2018-04-27T09:34:24.084Z,0.00
2018-04-27T09:35:24.073Z,0.00
2018-04-27T09:36:24.025Z,0.00
2018-04-27T09:37:24.096Z,0.00
2018-04-27T09:38:23.964Z,0.00
2018-04-27T09:39:23.950Z,0.00
2018-04-27T09:40:23.907Z,0.00
2018-04-27T09:41:23.884Z,0.00
2018-04-27T09:42:23.977Z,0.00
2018-04-27T09:43:23.817Z,0.00
2018-04-27T09:44:23.804Z,0.00
2018-04-27T09:45:23.779Z,0.00
2018-04-27T09:46:23.763Z,0.00
2018-04-27T09:47:23.710Z,0.00
2018-04-27T09:48:23.779Z,0.00
2018-04-27T09:49:23.691Z,0.00
2018-04-27T09:50:23.676Z,0.00
2018-04-27T09:51:23.602Z,0.00
2018-04-27T09:52:23.572Z,0.00
2018-04-27T09:53:23.656Z,0.00
2018-04-27T09:54:23.523Z,0.00
2018-04-27T09:55:23.515Z,0.00
2018-04-27T09:56:23.467Z,0.00
2018-04-27T09:57:23.507Z,0.00
2018-04-27T09:58:23.431Z,0.00
2018-04-27T09:59:23.480Z,0.00
2018-04-27T10:00:23.383Z,0.00
2018-04-27T10:01:23.321Z,0.00
2018-04-27T10:02:23.317Z,0.00
2018-04-27T10:03:23.397Z,0.00
2018-04-27T10:04:23.243Z,0.00
2018-04-27T10:05:23.328Z,0.00
2018-04-27T10:06:23.200Z,0.00
2018-04-27T10:07:23.203Z,0.00
2018-04-27T10:08:23.181Z,0.00
2018-04-27T10:09:23.102Z,0.00
2018-04-27T10:10:23.189Z,0.00
2018-04-27T10:11:23.060Z,0.00
2018-04-27T10:12:23.039Z,0.00
2018-04-27T10:13:22.993Z,0.00
2018-04-27T10:14:22.997Z,0.00
2018-04-27T10:15:23.050Z,0.00
2018-04-27T10:16:22.913Z,0.00
2018-04-27T10:17:22.887Z,0.00
2018-04-27T10:18:22.910Z,0.00
2018-04-27T10:19:22.844Z,0.00
2018-04-27T10:20:22.883Z,0.00
2018-04-27T10:21:22.876Z,0.00
2018-04-27T10:22:22.745Z,0.00
2018-04-27T10:23:22.755Z,0.00
2018-04-27T10:24:22.801Z,0.00
2018-04-27T10:25:22.691Z,0.00
2018-04-27T10:26:22.697Z,0.00
2018-04-27T10:27:22.644Z,0.00
2018-04-27T10:28:22.589Z,0.00
2018-04-27T10:29:22.585Z,0.00
2018-04-27T10:30:22.528Z,0.00
2018-04-27T10:31:22.610Z,0.00
2018-04-27T10:32:22.482Z,0.00
2018-04-27T10:33:22.449Z,0.00
2018-04-27T10:34:22.426Z,0.00
2018-04-27T10:35:22.476Z,0.00
2018-04-27T10:36:22.386Z,0.00
2018-04-27T10:37:22.456Z,0.00
2018-04-27T10:38:22.319Z,0.00
2018-04-27T10:39:22.301Z,0.00
2018-04-27T10:40:22.275Z,0.00
2018-04-27T10:41:22.266Z,0.00
2018-04-27T10:42:22.272Z,0.00
2018-04-27T10:43:22.180Z,0.00
2018-04-27T10:44:22.149Z,0.00
2018-04-27T10:45:22.137Z,0.00
2018-04-27T10:46:22.133Z,0.00
2018-04-27T10:47:22.179Z,0.00
2018-04-27T10:48:22.065Z,0.00
2018-04-27T10:49:22.011Z,0.00
2018-04-27T10:50:22.008Z,0.00
2018-04-27T10:51:21.951Z,0.00
2018-04-27T10:52:21.958Z,0.00
2018-04-27T10:53:22.025Z,0.00
2018-04-27T10:54:21.926Z,0.00
2018-04-27T10:55:21.899Z,0.00
2018-04-27T10:56:21.874Z,0.00
2018-04-27T10:57:21.816Z,0.00
2018-04-27T10:58:21.762Z,0.00
2018-04-27T10:59:21.883Z,0.00
2018-04-27T11:00:21.724Z,0.00
2018-04-27T11:01:21.693Z,0.00
2018-04-27T11:02:21.678Z,0.00
2018-04-27T11:03:21.710Z,0.00
2018-04-27T11:04:21.721Z,0.00
2018-04-27T11:05:21.583Z,0.00
2018-04-27T11:06:21.552Z,0.00
2018-04-27T11:07:21.540Z,0.00
2018-04-27T11:08:21.486Z,0.00
2018-04-27T11:09:21.467Z,0.00
2018-04-27T11:10:21.553Z,0.00
2018-04-27T11:11:21.408Z,0.00
2018-04-27T11:12:21.379Z,4.00
2018-04-27T11:13:21.368Z,0.00
2018-04-27T11:14:21.350Z,4.00
2018-04-27T11:15:21.309Z,0.00
2018-04-27T11:16:21.397Z,4.00
2018-04-27T11:17:21.256Z,4.00
2018-04-27T11:18:21.286Z,8.00
2018-04-27T11:19:21.206Z,8.00
2018-04-27T11:20:21.183Z,8.00
2018-04-27T11:21:21.254Z,8.00
2018-04-27T11:22:21.117Z,12.00
2018-04-27T11:23:21.099Z,16.00
2018-04-27T11:24:21.066Z,20.00
2018-04-27T11:25:21.028Z,20.00
2018-04-27T11:26:21.157Z,24.00
2018-04-27T11:27:20.982Z,28.00
2018-04-27T11:28:20.952Z,32.00
2018-04-27T11:29:20.919Z,36.00
2018-04-27T11:30:20.970Z,40.00
2018-04-27T11:31:20.980Z,44.00
2018-04-27T11:32:20.936Z,52.00
2018-04-27T11:33:20.843Z,56.00
2018-04-27T11:34:20.781Z,64.00
2018-04-27T11:35:20.833Z,72.00
2018-04-27T11:36:20.749Z,84.00
2018-04-27T11:37:20.802Z,88.00
2018-04-27T11:38:20.684Z,100.00
2018-04-27T11:39:20.711Z,108.00
2018-04-27T11:40:20.643Z,116.00
2018-04-27T11:41:20.687Z,124.00
2018-04-27T11:42:20.664Z,136.00
2018-04-27T11:43:20.672Z,140.00
2018-04-27T11:44:20.522Z,148.00
2018-04-27T11:45:20.483Z,148.00
2018-04-27T11:46:20.540Z,160.00
2018-04-27T11:47:20.480Z,168.00
2018-04-27T11:48:20.542Z,180.00
2018-04-27T11:49:20.510Z,188.00
2018-04-27T11:50:20.354Z,196.00
2018-04-27T11:51:20.340Z,212.00
2018-04-27T11:52:20.352Z,228.00
2018-04-27T11:53:20.381Z,244.00
2018-04-27T11:54:20.344Z,252.00
2018-04-27T11:55:20.245Z,260.00
2018-04-27T11:56:20.236Z,268.00
2018-04-27T11:57:20.208Z,276.00
2018-04-27T11:58:20.176Z,280.00
2018-04-27T11:59:20.152Z,260.00
2018-04-27T12:00:20.169Z,244.00
2018-04-27T12:01:20.109Z,232.00
2018-04-27T12:02:20.047Z,200.00
2018-04-27T12:03:20.037Z,192.00
2018-04-27T12:04:20.047Z,192.00
2018-04-27T12:05:19.962Z,188.00
2018-04-27T12:06:20.025Z,196.00
2018-04-27T12:07:19.890Z,200.00
2018-04-27T12:08:19.877Z,204.00
2018-04-27T12:09:19.822Z,208.00
2018-04-27T12:10:19.828Z,216.00
2018-04-27T12:11:19.841Z,224.00
2018-04-27T12:12:19.743Z,228.00
2018-04-27T12:13:19.771Z,236.00
2018-04-27T12:14:19.682Z,240.00
2018-04-27T12:15:19.681Z,248.00
2018-04-27T12:16:19.742Z,256.00
2018-04-27T12:17:19.625Z,264.00
2018-04-27T12:18:19.704Z,268.00
2018-04-27T12:19:19.562Z,276.00
2018-04-27T12:20:19.537Z,280.00
2018-04-27T12:21:19.569Z,284.00
2018-04-27T12:22:19.464Z,292.00
2018-04-27T12:23:19.456Z,296.00
2018-04-27T12:24:19.519Z,292.00
2018-04-27T12:25:19.417Z,288.00
2018-04-27T12:26:19.357Z,288.00
2018-04-27T12:27:19.399Z,288.00
2018-04-27T12:28:19.408Z,292.00
2018-04-27T12:29:19.276Z,296.00
2018-04-27T12:30:19.321Z,304.00
2018-04-27T12:31:19.377Z,312.00
2018-04-27T12:32:19.185Z,328.00
2018-04-27T12:33:19.266Z,344.00
2018-04-27T12:34:19.173Z,356.00
2018-04-27T12:35:19.122Z,368.00
2018-04-27T12:36:19.103Z,376.00
2018-04-27T12:37:19.074Z,392.00
2018-04-27T12:38:19.088Z,404.00
2018-04-27T12:39:19.120Z,416.00
2018-04-27T12:40:19.380Z,432.00
2018-04-27T12:41:19.582Z,436.00
2018-04-27T12:42:19.620Z,452.00
2018-04-27T12:43:19.556Z,476.00
2018-04-27T12:44:19.985Z,512.00
2018-04-27T12:45:19.496Z,568.00
2018-04-27T12:46:19.519Z,636.00
2018-04-27T12:47:19.407Z,744.00
2018-04-27T12:48:19.321Z,848.00
2018-04-27T12:49:19.398Z,920.00
2018-04-27T12:50:20.014Z,1052.00
2018-04-27T12:51:19.248Z,1008.00
2018-04-27T12:52:19.376Z,904.00
2018-04-27T12:53:19.162Z,892.00
2018-04-27T12:54:18.943Z,812.00
2018-04-27T12:55:19.832Z,748.00
2018-04-27T12:56:18.591Z,704.00
2018-04-27T12:57:18.539Z,684.00
2018-04-27T12:58:18.510Z,652.00
2018-04-27T12:59:18.462Z,660.00
2018-04-27T13:00:18.488Z,684.00
2018-04-27T13:01:18.476Z,728.00
2018-04-27T13:02:18.485Z,760.00
2018-04-27T13:03:18.373Z,760.00
2018-04-27T13:04:18.333Z,716.00
2018-04-27T13:05:18.339Z,708.00
2018-04-27T13:06:18.434Z,684.00
2018-04-27T13:07:18.271Z,700.00
2018-04-27T13:08:18.236Z,708.00
2018-04-27T13:09:18.252Z,724.00
2018-04-27T13:10:18.155Z,712.00
2018-04-27T13:11:18.152Z,712.00